createdAt,value
2023-03-08T00:02:01.973Z,51.40
2023-03-08T00:04:28.676Z,51.50
2023-03-08T00:06:55.388Z,51.40
2023-03-08T00:09:22.096Z,51.30
2023-03-08T00:11:48.797Z,51.10
2023-03-08T00:14:15.574Z,51.20
2023-03-08T00:16:42.287Z,51.30
2023-03-08T00:19:08.995Z,51.30
2023-03-08T00:21:35.707Z,51.40
2023-03-08T00:24:02.491Z,51.40
2023-03-08T00:26:29.223Z,52.00
2023-03-08T00:28:56.053Z,51.30
2023-03-08T00:31:23.072Z,51.20
2023-03-08T00:33:53.957Z,51.50
2023-03-08T00:36:21.624Z,51.00
2023-03-08T00:38:48.768Z,51.40
2023-03-08T00:41:15.978Z,51.40
2023-03-08T00:43:43.376Z,51.30
2023-03-08T00:46:11.607Z,51.50
2023-03-08T00:48:38.533Z,51.90
2023-03-08T00:51:05.637Z,51.60
2023-03-08T00:53:32.397Z,51.60
2023-03-08T00:56:00.544Z,51.60
2023-03-08T00:58:30.392Z,51.30
2023-03-08T01:00:58.911Z,51.50
2023-03-08T01:03:27.517Z,51.60
2023-03-08T01:05:56.740Z,51.70
2023-03-08T01:08:25.758Z,51.40
2023-03-08T01:10:58.451Z,51.50
2023-03-08T01:13:33.977Z,51.70
2023-03-08T01:16:01.959Z,51.50
2023-03-08T01:18:29.039Z,51.50
2023-03-08T01:21:02.528Z,51.50
2023-03-08T01:23:30.083Z,51.40
2023-03-08T01:26:01.414Z,51.60
2023-03-08T01:28:28.719Z,51.70
2023-03-08T01:31:02.309Z,51.90
2023-03-08T01:33:29.194Z,51.80
2023-03-08T01:35:56.609Z,51.80
2023-03-08T01:38:24.480Z,51.90
2023-03-08T01:40:57.284Z,51.80
2023-03-08T01:43:27.496Z,51.80
2023-03-08T01:46:19.523Z,51.70
2023-03-08T01:49:09.613Z,51.80
2023-03-08T01:51:45.914Z,51.60
2023-03-08T01:54:25.826Z,51.90
2023-03-08T01:56:55.920Z,51.90
2023-03-08T01:59:24.164Z,51.70
2023-03-08T02:01:51.835Z,51.70
2023-03-08T02:04:19.197Z,52.50
2023-03-08T02:06:46.743Z,51.60
2023-03-08T02:09:14.390Z,51.80
2023-03-08T02:11:43.197Z,51.80
2023-03-08T02:14:11.509Z,51.90
2023-03-08T02:16:39.681Z,51.90
2023-03-08T02:19:15.450Z,51.70
2023-03-08T02:21:42.880Z,52.00
2023-03-08T02:24:24.645Z,51.80
2023-03-08T02:27:06.879Z,51.90
2023-03-08T02:29:34.279Z,52.10
2023-03-08T02:32:02.244Z,52.00
2023-03-08T02:34:30.074Z,52.00
2023-03-08T02:36:57.474Z,52.00
2023-03-08T02:39:25.355Z,51.90
2023-03-08T02:41:52.802Z,52.10
2023-03-08T02:44:20.155Z,51.90
2023-03-08T02:46:47.993Z,52.00
2023-03-08T02:49:15.819Z,52.00
2023-03-08T02:51:43.507Z,52.10
2023-03-08T02:54:11.355Z,51.90
2023-03-08T02:56:39.046Z,51.80
2023-03-08T02:59:06.720Z,51.80
2023-03-08T03:01:34.158Z,51.80
2023-03-08T03:04:01.427Z,51.90
2023-03-08T03:06:28.747Z,51.70
2023-03-08T03:08:55.831Z,51.90
2023-03-08T03:11:23.294Z,51.90
2023-03-08T03:13:59.227Z,51.80
2023-03-08T03:16:27.096Z,51.90
2023-03-08T03:18:55.489Z,52.00
2023-03-08T03:21:23.112Z,52.00
2023-03-08T03:23:50.140Z,52.10
2023-03-08T03:26:19.776Z,51.90
2023-03-08T03:28:46.594Z,51.80
2023-03-08T03:31:19.796Z,51.70
2023-03-08T03:33:47.768Z,51.80
2023-03-08T03:36:16.645Z,51.80
2023-03-08T03:38:43.664Z,52.10
2023-03-08T03:41:22.002Z,52.00
2023-03-08T03:43:49.703Z,52.00
2023-03-08T03:46:18.646Z,52.20
2023-03-08T03:48:46.083Z,52.00
2023-03-08T03:51:18.995Z,52.10
2023-03-08T03:53:45.934Z,52.00
2023-03-08T03:56:15.536Z,51.90
2023-03-08T03:58:42.979Z,51.90
2023-03-08T04:01:11.620Z,51.70
2023-03-08T04:03:38.587Z,51.70
2023-03-08T04:06:10.240Z,51.80
2023-03-08T04:08:42.127Z,51.90
2023-03-08T04:11:15.319Z,51.80
2023-03-08T04:13:42.402Z,52.00
2023-03-08T04:16:11.665Z,51.90
2023-03-08T04:18:38.619Z,51.80
2023-03-08T04:21:06.070Z,51.80
2023-03-08T04:23:33.443Z,52.00
2023-03-08T04:26:00.838Z,51.90
2023-03-08T04:28:27.758Z,51.80
2023-03-08T04:30:54.630Z,52.00
2023-03-08T04:33:21.621Z,52.10
2023-03-08T04:35:48.497Z,52.00
2023-03-08T04:38:15.520Z,52.20
2023-03-08T04:41:08.051Z,52.00
2023-03-08T04:43:35.176Z,51.90
2023-03-08T04:46:02.500Z,51.90
2023-03-08T04:48:30.031Z,52.00
2023-03-08T04:50:59.539Z,51.90
2023-03-08T04:53:26.620Z,51.80
2023-03-08T04:55:54.101Z,51.80
2023-03-08T04:58:21.651Z,51.80
2023-03-08T05:00:48.749Z,51.80
2023-03-08T05:03:15.486Z,51.80
2023-03-08T05:05:50.053Z,51.70
2023-03-08T05:08:17.071Z,51.80
2023-03-08T05:10:55.428Z,52.00
2023-03-08T05:13:22.170Z,51.90
2023-03-08T05:15:48.906Z,52.00
2023-03-08T05:18:15.828Z,51.90
2023-03-08T05:20:42.572Z,51.70
2023-03-08T05:23:10.100Z,51.80
2023-03-08T05:25:42.778Z,51.70
2023-03-08T05:28:09.553Z,51.60
2023-03-08T05:30:36.225Z,51.60
2023-03-08T05:33:02.989Z,51.80
2023-03-08T05:35:29.759Z,51.40
2023-03-08T05:37:56.620Z,51.30
2023-03-08T05:40:23.335Z,51.60
2023-03-08T05:42:50.034Z,51.70
2023-03-08T05:45:16.855Z,51.80
2023-03-08T05:47:43.687Z,51.80
2023-03-08T05:50:11.915Z,51.60
2023-03-08T05:52:38.971Z,51.70
2023-03-08T05:55:06.234Z,51.60
2023-03-08T05:57:32.934Z,51.70
2023-03-08T05:59:59.665Z,51.70
2023-03-08T06:02:28.442Z,51.70
2023-03-08T06:04:55.182Z,51.80
2023-03-08T06:07:22.016Z,51.70
2023-03-08T06:09:48.797Z,51.70
2023-03-08T06:12:15.454Z,51.60
2023-03-08T06:14:42.184Z,51.70
2023-03-08T06:17:08.910Z,51.80
2023-03-08T06:19:36.358Z,51.90
2023-03-08T06:22:03.006Z,51.70
2023-03-08T06:24:29.689Z,51.70
2023-03-08T06:26:56.371Z,51.70
2023-03-08T06:29:23.370Z,51.70
2023-03-08T06:31:50.086Z,51.80
2023-03-08T06:34:17.038Z,51.50
2023-03-08T06:36:43.982Z,51.50
2023-03-08T06:39:10.693Z,51.90
2023-03-08T06:41:37.449Z,51.60
2023-03-08T06:44:04.165Z,51.80
2023-03-08T06:46:30.917Z,51.70
2023-03-08T06:48:57.749Z,51.80
2023-03-08T06:51:24.502Z,51.70
2023-03-08T06:53:51.396Z,51.80
2023-03-08T06:56:18.429Z,51.60
2023-03-08T06:58:45.568Z,51.70
2023-03-08T07:01:13.736Z,51.80
2023-03-08T07:03:40.849Z,51.50
2023-03-08T07:06:10.142Z,51.60
2023-03-08T07:08:37.847Z,51.50
2023-03-08T07:11:06.670Z,51.50
2023-03-08T07:13:33.453Z,51.50
2023-03-08T07:16:05.060Z,51.10
2023-03-08T07:18:31.825Z,51.00
2023-03-08T07:20:59.026Z,51.30
2023-03-08T07:23:25.930Z,51.00
2023-03-08T07:25:52.687Z,51.20
2023-03-08T07:28:19.397Z,51.10
2023-03-08T07:30:50.549Z,51.00
2023-03-08T07:33:18.123Z,51.10
2023-03-08T07:35:44.858Z,51.10
2023-03-08T07:38:15.867Z,51.10
2023-03-08T07:40:42.993Z,51.20
2023-03-08T07:43:09.862Z,51.80
2023-03-08T07:45:39.438Z,51.00
2023-03-08T07:48:06.710Z,51.20
2023-03-08T07:50:33.473Z,51.20
2023-03-08T07:53:01.022Z,51.40
2023-03-08T07:55:28.734Z,51.60
2023-03-08T07:57:55.748Z,51.30
2023-03-08T08:00:22.941Z,51.10
2023-03-08T08:02:49.781Z,51.30
2023-03-08T08:05:16.783Z,51.30
2023-03-08T08:07:46.978Z,51.60
2023-03-08T08:10:14.142Z,52.00
2023-03-08T08:12:40.921Z,51.30
2023-03-08T08:15:07.879Z,51.20
2023-03-08T08:17:34.562Z,51.00
2023-03-08T08:20:01.284Z,51.10
2023-03-08T08:22:28.025Z,51.10
2023-03-08T08:24:54.762Z,51.10
2023-03-08T08:27:21.512Z,51.00
2023-03-08T08:29:50.839Z,51.20
2023-03-08T08:32:17.670Z,51.20
2023-03-08T08:34:44.450Z,51.10
2023-03-08T08:37:11.224Z,51.00
2023-03-08T08:39:38.199Z,51.00
2023-03-08T08:42:04.999Z,50.80
2023-03-08T08:44:31.750Z,51.00
2023-03-08T08:46:58.862Z,50.80
2023-03-08T08:49:25.645Z,51.00
2023-03-08T08:51:53.347Z,51.00
2023-03-08T08:54:20.156Z,51.00
2023-03-08T08:56:47.002Z,51.00
2023-03-08T08:59:16.331Z,51.20
2023-03-08T09:01:47.077Z,51.20
2023-03-08T09:04:16.636Z,51.40
2023-03-08T09:06:43.616Z,51.30
2023-03-08T09:09:10.298Z,51.40
2023-03-08T09:11:48.431Z,51.20
2023-03-08T09:14:20.435Z,51.20
2023-03-08T09:16:47.149Z,51.10
2023-03-08T09:19:13.859Z,51.30
2023-03-08T09:21:40.576Z,51.30
2023-03-08T09:24:10.032Z,51.10
2023-03-08T09:26:36.800Z,51.30
2023-03-08T09:29:07.764Z,51.30
2023-03-08T09:31:36.863Z,51.10
2023-03-08T09:34:08.982Z,51.30
2023-03-08T09:36:39.457Z,51.10
2023-03-08T09:39:08.808Z,51.00
2023-03-08T09:41:44.617Z,51.10
2023-03-08T09:44:32.461Z,51.40
2023-03-08T09:47:13.194Z,51.30
2023-03-08T09:49:43.213Z,51.50
2023-03-08T09:52:38.716Z,51.30
2023-03-08T09:55:15.682Z,51.50
2023-03-08T09:57:52.495Z,51.80
2023-03-08T10:00:22.529Z,51.70
2023-03-08T10:03:14.094Z,51.60
2023-03-08T10:05:48.146Z,51.40
2023-03-08T10:08:30.429Z,51.30
2023-03-08T10:11:01.546Z,51.20
2023-03-08T10:13:30.309Z,51.30
2023-03-08T10:16:06.535Z,51.20
2023-03-08T10:18:47.162Z,51.50
2023-03-08T10:21:17.924Z,51.50
2023-03-08T10:23:47.739Z,51.20
2023-03-08T10:26:16.159Z,51.40
2023-03-08T10:28:42.920Z,51.30
2023-03-08T10:31:21.333Z,51.50
2023-03-08T10:33:52.326Z,51.80
2023-03-08T10:36:25.497Z,51.40
2023-03-08T10:39:04.608Z,51.20
2023-03-08T10:41:36.646Z,51.20
2023-03-08T10:44:04.078Z,50.90
2023-03-08T10:46:32.871Z,51.10
2023-03-08T10:49:28.832Z,51.20
2023-03-08T10:51:58.772Z,51.70
2023-03-08T10:54:27.556Z,51.30
2023-03-08T10:56:56.185Z,51.30
2023-03-08T10:59:34.731Z,51.30
2023-03-08T11:02:12.749Z,51.30
2023-03-08T11:04:51.446Z,51.40
2023-03-08T11:07:24.217Z,51.30
2023-03-08T11:09:51.250Z,50.90
2023-03-08T11:12:25.680Z,51.00
2023-03-08T11:14:53.287Z,50.90
2023-03-08T11:17:39.300Z,50.90
2023-03-08T11:20:11.062Z,50.80
2023-03-08T11:22:50.247Z,50.70
2023-03-08T11:25:22.865Z,50.80
2023-03-08T11:28:29.109Z,50.80
2023-03-08T11:31:00.122Z,50.50
2023-03-08T11:33:53.234Z,50.60
2023-03-08T11:36:40.276Z,50.80
2023-03-08T11:39:28.532Z,50.70
2023-03-08T11:42:16.649Z,50.70
2023-03-08T11:44:55.077Z,50.50
2023-03-08T11:47:51.471Z,50.70
2023-03-08T11:50:20.966Z,50.80
2023-03-08T11:53:05.572Z,50.80
2023-03-08T11:55:41.874Z,50.90
2023-03-08T11:58:11.328Z,50.70
2023-03-08T12:00:41.793Z,50.80
2023-03-08T12:03:29.284Z,50.90
2023-03-08T12:06:03.276Z,50.80
2023-03-08T12:09:02.518Z,50.60
2023-03-08T12:11:31.797Z,50.60
2023-03-08T12:14:23.241Z,50.60
2023-03-08T12:17:02.629Z,50.70
2023-03-08T12:19:44.014Z,50.70
2023-03-08T12:22:31.035Z,50.90
2023-03-08T12:25:09.516Z,50.80
2023-03-08T12:27:57.864Z,50.80
2023-03-08T12:31:15.389Z,50.80
2023-03-08T12:33:54.125Z,51.10
2023-03-08T12:36:22.632Z,51.00
2023-03-08T12:38:56.621Z,51.00
2023-03-08T12:41:27.336Z,50.90
2023-03-08T12:44:02.142Z,50.90
2023-03-08T12:46:52.873Z,50.80
2023-03-08T12:49:38.939Z,50.60
2023-03-08T12:52:07.530Z,50.70
2023-03-08T12:54:35.578Z,51.40
2023-03-08T12:57:14.511Z,50.70
2023-03-08T12:59:41.542Z,50.80
2023-03-08T13:02:25.783Z,50.70
2023-03-08T13:05:18.281Z,50.60
2023-03-08T13:07:52.690Z,51.00
2023-03-08T13:10:39.515Z,51.00
2023-03-08T13:13:21.107Z,50.80
2023-03-08T13:16:35.493Z,50.80
2023-03-08T13:19:14.822Z,50.60
2023-03-08T13:22:08.649Z,51.00
2023-03-08T13:24:47.405Z,51.20
2023-03-08T13:27:30.117Z,51.10
2023-03-08T13:30:21.159Z,51.10
2023-03-08T13:32:49.232Z,51.20
2023-03-08T13:35:17.590Z,51.20
2023-03-08T13:37:53.314Z,51.00
2023-03-08T13:40:21.799Z,51.00
2023-03-08T13:43:02.202Z,51.00
2023-03-08T13:45:29.577Z,51.00
2023-03-08T13:47:59.977Z,51.00
2023-03-08T13:50:36.067Z,50.80
2023-03-08T13:53:07.669Z,50.90
2023-03-08T13:55:38.759Z,51.00
2023-03-08T13:58:05.913Z,50.90
2023-03-08T14:00:35.769Z,51.10
2023-03-08T14:03:06.577Z,50.90
2023-03-08T14:05:40.940Z,50.80
2023-03-08T14:08:19.694Z,50.90
2023-03-08T14:10:49.178Z,50.80
2023-03-08T14:13:26.832Z,50.90
2023-03-08T14:15:57.920Z,51.20
2023-03-08T14:18:33.343Z,51.20
2023-03-08T14:21:21.809Z,51.30
2023-03-08T14:23:51.877Z,51.20
2023-03-08T14:26:24.416Z,51.00
2023-03-08T14:29:11.531Z,51.20
2023-03-08T14:31:39.407Z,50.80
2023-03-08T14:34:19.919Z,51.00
2023-03-08T14:36:59.422Z,50.80
2023-03-08T14:39:28.328Z,51.10
2023-03-08T14:41:56.114Z,50.90
2023-03-08T14:44:28.444Z,51.10
2023-03-08T14:46:58.708Z,51.20
2023-03-08T14:49:29.230Z,51.10
2023-03-08T14:51:56.518Z,51.40
2023-03-08T14:54:36.487Z,51.20
2023-03-08T14:57:25.579Z,51.20
2023-03-08T14:59:53.476Z,51.00
2023-03-08T15:02:20.280Z,51.20
2023-03-08T15:04:47.061Z,51.20
2023-03-08T15:07:20.082Z,51.40
2023-03-08T15:09:51.432Z,51.20
2023-03-08T15:12:18.413Z,51.50
2023-03-08T15:14:45.228Z,51.30
2023-03-08T15:17:12.033Z,51.10
2023-03-08T15:19:38.770Z,51.30
2023-03-08T15:22:06.823Z,51.10
2023-03-08T15:24:34.002Z,51.30
2023-03-08T15:27:00.738Z,51.00
2023-03-08T15:29:33.586Z,51.20
2023-03-08T15:32:00.710Z,51.00
2023-03-08T15:34:28.595Z,50.90
2023-03-08T15:36:55.890Z,50.90
2023-03-08T15:39:22.609Z,51.20
2023-03-08T15:41:49.444Z,51.00
2023-03-08T15:44:16.529Z,51.00
2023-03-08T15:46:43.293Z,51.00
2023-03-08T15:49:10.859Z,50.80
2023-03-08T15:51:38.291Z,50.90
2023-03-08T15:54:06.329Z,51.10
2023-03-08T15:56:33.516Z,51.30
2023-03-08T15:59:00.339Z,51.10
2023-03-08T16:01:27.842Z,51.20
2023-03-08T16:03:57.675Z,51.30
2023-03-08T16:06:24.992Z,51.20
2023-03-08T16:08:51.865Z,51.00
2023-03-08T16:11:22.308Z,51.00
2023-03-08T16:13:51.187Z,50.90
2023-03-08T16:16:19.006Z,51.00
2023-03-08T16:18:46.002Z,50.70
2023-03-08T16:21:13.136Z,50.80
2023-03-08T16:23:41.692Z,51.10
2023-03-08T16:26:16.772Z,50.90
2023-03-08T16:28:45.730Z,51.30
2023-03-08T16:31:13.313Z,51.20
2023-03-08T16:33:40.361Z,51.30
2023-03-08T16:36:07.633Z,51.60
2023-03-08T16:38:34.447Z,51.00
2023-03-08T16:41:12.130Z,51.00
2023-03-08T16:43:46.736Z,51.10
2023-03-08T16:46:16.630Z,51.00
2023-03-08T16:48:43.473Z,51.00
2023-03-08T16:51:14.394Z,51.30
2023-03-08T16:53:41.117Z,51.10
2023-03-08T16:56:08.200Z,50.90
2023-03-08T16:58:35.004Z,51.70
2023-03-08T17:01:01.720Z,51.30
2023-03-08T17:03:28.422Z,51.30
2023-03-08T17:05:55.174Z,51.30
2023-03-08T17:08:21.861Z,51.50
2023-03-08T17:10:48.554Z,51.60
2023-03-08T17:13:15.323Z,51.30
2023-03-08T17:15:43.814Z,51.40
2023-03-08T17:18:11.050Z,51.60
2023-03-08T17:20:42.201Z,51.40
2023-03-08T17:23:10.892Z,51.20
2023-03-08T17:25:41.071Z,51.30
2023-03-08T17:28:08.667Z,51.40
2023-03-08T17:30:36.110Z,51.60
2023-03-08T17:33:02.835Z,51.50
2023-03-08T17:35:29.972Z,51.60
2023-03-08T17:37:56.876Z,51.90
2023-03-08T17:40:23.748Z,51.70
2023-03-08T17:42:50.718Z,52.50
2023-03-08T17:45:18.288Z,51.90
2023-03-08T17:47:45.179Z,51.60
2023-03-08T17:50:15.724Z,51.60
2023-03-08T17:52:42.563Z,51.80
2023-03-08T17:55:11.189Z,51.80
2023-03-08T17:57:38.209Z,52.20
2023-03-08T18:00:06.391Z,51.90
2023-03-08T18:02:33.615Z,52.20
2023-03-08T18:05:00.511Z,52.10
2023-03-08T18:07:29.127Z,52.10
2023-03-08T18:09:55.867Z,52.00
2023-03-08T18:12:22.840Z,51.80
2023-03-08T18:14:52.447Z,51.90
2023-03-08T18:17:20.973Z,51.90
2023-03-08T18:19:48.057Z,51.90
2023-03-08T18:22:15.692Z,51.60
2023-03-08T18:24:42.913Z,51.90
2023-03-08T18:27:09.823Z,51.80
2023-03-08T18:29:37.415Z,52.00
2023-03-08T18:32:04.852Z,51.60
2023-03-08T18:34:31.756Z,51.70
2023-03-08T18:36:58.869Z,51.60
2023-03-08T18:39:27.103Z,51.50
2023-03-08T18:41:56.789Z,51.70
2023-03-08T18:44:24.704Z,51.80
2023-03-08T18:46:51.548Z,51.90
2023-03-08T18:49:18.555Z,51.70
2023-03-08T18:51:45.770Z,52.00
2023-03-08T18:54:15.946Z,52.10
2023-03-08T18:56:43.077Z,52.30
2023-03-08T18:59:13.268Z,52.20
2023-03-08T19:01:40.802Z,52.10
2023-03-08T19:04:08.095Z,52.20
2023-03-08T19:06:36.153Z,52.10
2023-03-08T19:09:17.045Z,52.20
2023-03-08T19:11:45.255Z,52.30
2023-03-08T19:14:12.941Z,52.20
2023-03-08T19:16:39.898Z,52.20
2023-03-08T19:19:10.000Z,52.20
2023-03-08T19:21:41.235Z,52.10
2023-03-08T19:24:08.914Z,52.30
2023-03-08T19:26:37.995Z,52.50
2023-03-08T19:29:23.735Z,52.20
2023-03-08T19:31:53.441Z,52.30
2023-03-08T19:34:22.553Z,52.30
2023-03-08T19:36:50.267Z,52.20
2023-03-08T19:39:20.379Z,52.50
2023-03-08T19:41:52.935Z,52.30
2023-03-08T19:44:20.218Z,52.40
2023-03-08T19:46:47.516Z,52.40
2023-03-08T19:49:26.372Z,52.80
2023-03-08T19:51:55.175Z,52.50
2023-03-08T19:54:23.419Z,52.70
2023-03-08T19:56:50.724Z,52.80
2023-03-08T19:59:17.713Z,52.90
2023-03-08T20:01:44.595Z,52.70
2023-03-08T20:04:12.351Z,52.60
2023-03-08T20:06:43.522Z,52.50
2023-03-08T20:09:13.998Z,52.60
2023-03-08T20:11:41.149Z,52.70
2023-03-08T20:14:08.482Z,52.70
2023-03-08T20:16:35.403Z,52.50
2023-03-08T20:19:02.618Z,52.60
2023-03-08T20:21:31.497Z,52.50
2023-03-08T20:23:59.602Z,53.10
2023-03-08T20:26:32.986Z,52.20
2023-03-08T20:29:00.549Z,52.30
2023-03-08T20:31:29.032Z,52.40
2023-03-08T20:33:56.115Z,52.10
2023-03-08T20:36:23.682Z,52.40
2023-03-08T20:38:50.474Z,52.30
2023-03-08T20:41:22.527Z,52.20
2023-03-08T20:43:51.550Z,52.40
2023-03-08T20:46:20.605Z,52.20
2023-03-08T20:48:47.699Z,53.20
2023-03-08T20:51:17.109Z,52.30
2023-03-08T20:53:45.253Z,52.60
2023-03-08T20:56:14.684Z,52.50
2023-03-08T20:58:41.816Z,52.50
2023-03-08T21:01:17.789Z,52.10
2023-03-08T21:03:45.484Z,52.50
2023-03-08T21:06:18.756Z,52.20
2023-03-08T21:08:46.175Z,52.40
2023-03-08T21:11:13.248Z,52.50
2023-03-08T21:13:40.257Z,52.40
2023-03-08T21:16:09.809Z,52.50
2023-03-08T21:18:36.525Z,52.40
2023-03-08T21:21:03.269Z,52.30
2023-03-08T21:23:30.074Z,52.30
2023-03-08T21:26:00.423Z,52.20
2023-03-08T21:28:27.378Z,52.40
2023-03-08T21:30:54.408Z,52.30
2023-03-08T21:33:21.173Z,52.50
2023-03-08T21:35:47.901Z,52.50
2023-03-08T21:38:14.633Z,52.30
2023-03-08T21:40:42.701Z,52.70
2023-03-08T21:43:09.453Z,52.80
2023-03-08T21:45:41.677Z,52.90
2023-03-08T21:48:09.333Z,53.00
2023-03-08T21:50:39.845Z,53.00
2023-03-08T21:53:07.995Z,53.00
2023-03-08T21:55:38.598Z,53.30
2023-03-08T21:58:05.590Z,53.30
2023-03-08T22:00:32.614Z,53.30
2023-03-08T22:05:38.424Z,53.30
2023-03-08T22:08:05.309Z,53.30
2023-03-08T22:10:32.066Z,53.30
2023-03-08T22:12:59.264Z,53.40
2023-03-08T22:15:26.020Z,53.40
2023-03-08T22:17:53.092Z,53.40
2023-03-08T22:20:20.197Z,53.70
2023-03-08T22:22:47.363Z,53.30
2023-03-08T22:25:14.068Z,53.10
2023-03-08T22:27:40.874Z,53.00
2023-03-08T22:30:10.747Z,53.10
2023-03-08T22:32:41.949Z,52.90
2023-03-08T22:35:12.619Z,53.10
2023-03-08T22:37:40.142Z,53.20
2023-03-08T22:40:11.325Z,53.10
2023-03-08T22:42:38.007Z,53.30
2023-03-08T22:45:05.466Z,53.30
2023-03-08T22:47:32.148Z,53.40
2023-03-08T22:49:58.967Z,53.30
2023-03-08T22:52:25.696Z,53.00
2023-03-08T22:54:52.380Z,53.20
2023-03-08T22:57:19.113Z,53.20
2023-03-08T22:59:46.844Z,53.30
2023-03-08T23:02:14.152Z,53.40
2023-03-08T23:04:41.470Z,53.20
2023-03-08T23:07:08.273Z,53.40
2023-03-08T23:09:35.695Z,53.40
2023-03-08T23:12:04.783Z,53.40
2023-03-08T23:14:32.332Z,53.40
2023-03-08T23:16:59.070Z,53.20
2023-03-08T23:19:26.308Z,53.30
2023-03-08T23:21:53.103Z,53.50
2023-03-08T23:24:20.185Z,53.50
2023-03-08T23:26:47.050Z,53.50
2023-03-08T23:29:14.997Z,53.40
2023-03-08T23:31:44.974Z,53.30
2023-03-08T23:34:12.181Z,53.40
2023-03-08T23:36:38.878Z,53.20
2023-03-08T23:39:05.594Z,53.30
2023-03-08T23:41:32.982Z,53.30
2023-03-08T23:44:01.350Z,53.30
2023-03-08T23:46:28.981Z,53.30
2023-03-08T23:48:57.860Z,53.10
2023-03-08T23:51:26.472Z,53.10
2023-03-08T23:53:56.992Z,53.00
2023-03-08T23:56:37.607Z,53.00
2023-03-08T23:59:11.857Z,53.00
